Terminal Aerodrome Forecast
Issued by NWS

Home | Current Version | Previous Version | Text Only | Print | Product List | Glossary On
Versions: 1 2 3 4 5 6 7 8 9 10 11 12 13 14 15 16 17 18 19 20 21
000
FTUS44 KBMX 241100
TAFTOI
TAF
KTOI 241138Z 2412/2512 00000KT 2SM BR SKC
      TEMPO 2412/2413 5SM BR
     FM241300 24004KT P6SM SCT040
     FM241800 25006KT P6SM VCTS BKN035CB
     FM250100 00000KT P6SM SCT050
     FM250900 00000KT 3SM BR OVC005=

USA.gov is the U.S. government's official web portal to all federal, state and local government web resources and services.